createdAt,value
2023-01-31T00:00:19.179Z,362
2023-01-31T00:01:17.938Z,356
2023-01-31T00:02:17.526Z,356
2023-01-31T00:03:17.034Z,363
2023-01-31T00:04:17.610Z,366
2023-01-31T00:05:18.022Z,361
2023-01-31T00:06:17.800Z,367
2023-01-31T00:07:17.284Z,367
2023-01-31T00:08:17.704Z,356
2023-01-31T00:09:17.141Z,363
2023-01-31T00:10:17.905Z,368
2023-01-31T00:11:17.242Z,368
2023-01-31T00:12:17.770Z,364
2023-01-31T00:13:17.185Z,356
2023-01-31T00:14:17.842Z,357
2023-01-31T00:15:17.859Z,357
2023-01-31T00:16:17.456Z,354
2023-01-31T00:17:17.880Z,359
2023-01-31T00:18:17.923Z,360
2023-01-31T00:20:17.533Z,358
2023-01-31T00:21:17.202Z,360
2023-01-31T00:22:17.059Z,359
2023-01-31T00:24:17.617Z,359
2023-01-31T00:25:18.254Z,364
2023-01-31T00:26:17.776Z,353
2023-01-31T00:28:17.820Z,365
2023-01-31T00:30:18.388Z,368
2023-01-31T00:32:18.623Z,370
2023-01-31T00:33:18.664Z,360
2023-01-31T00:34:18.030Z,361
2023-01-31T00:36:17.941Z,371
2023-01-31T00:37:17.991Z,369
2023-01-31T00:38:18.072Z,374
2023-01-31T00:40:18.191Z,364
2023-01-31T00:41:17.903Z,356
2023-01-31T00:42:17.607Z,366
2023-01-31T00:43:17.350Z,366
2023-01-31T00:44:16.889Z,357
2023-01-31T00:45:18.723Z,361
2023-01-31T00:48:17.450Z,364
2023-01-31T00:50:17.434Z,373
2023-01-31T00:51:17.330Z,372
2023-01-31T00:52:17.175Z,365
2023-01-31T00:53:17.883Z,352
2023-01-31T00:55:18.067Z,351
2023-01-31T00:56:17.943Z,363
2023-01-31T00:57:18.271Z,364
2023-01-31T00:58:17.848Z,354
2023-01-31T00:59:17.252Z,354
2023-01-31T01:00:18.416Z,361
2023-01-31T01:01:19.959Z,338
2023-01-31T01:02:17.119Z,338
2023-01-31T01:04:17.559Z,357
2023-01-31T01:05:17.675Z,348
2023-01-31T01:06:17.293Z,359
2023-01-31T01:07:17.315Z,367
2023-01-31T01:08:17.836Z,365
2023-01-31T01:09:18.254Z,360
2023-01-31T01:10:17.509Z,359
2023-01-31T01:11:17.352Z,360
2023-01-31T01:12:17.579Z,365
2023-01-31T01:13:17.722Z,360
2023-01-31T01:16:23.216Z,355
2023-01-31T01:17:18.407Z,362
2023-01-31T01:18:18.099Z,361
2023-01-31T01:20:18.157Z,370
2023-01-31T01:21:17.749Z,372
2023-01-31T01:22:17.580Z,365
2023-01-31T01:24:17.773Z,369
2023-01-31T01:25:18.462Z,364
2023-01-31T01:28:18.176Z,369
2023-01-31T01:31:18.653Z,360
2023-01-31T01:32:18.354Z,365
2023-01-31T01:33:18.074Z,356
2023-01-31T01:34:18.333Z,369
2023-01-31T01:36:18.070Z,366
2023-01-31T01:37:18.158Z,368
2023-01-31T01:38:17.818Z,368
2023-01-31T01:39:18.019Z,371
2023-01-31T01:40:18.784Z,359
2023-01-31T01:41:17.923Z,359
2023-01-31T01:44:18.421Z,365
2023-01-31T01:45:20.073Z,373
2023-01-31T01:47:18.279Z,356
2023-01-31T01:48:17.890Z,359
2023-01-31T01:49:17.866Z,359
2023-01-31T01:51:17.695Z,360
2023-01-31T01:52:18.039Z,363
2023-01-31T01:53:18.290Z,355
2023-01-31T01:55:18.758Z,370
2023-01-31T01:56:18.340Z,360
2023-01-31T01:57:17.505Z,360
2023-01-31T01:58:17.571Z,359
2023-01-31T01:59:17.488Z,360
2023-01-31T02:00:18.788Z,367
2023-01-31T02:01:18.079Z,366
2023-01-31T02:03:17.295Z,367
2023-01-31T02:04:17.804Z,361
2023-01-31T02:05:18.935Z,376
2023-01-31T02:07:17.631Z,369
2023-01-31T02:08:17.242Z,360
2023-01-31T02:09:17.526Z,359
2023-01-31T02:10:18.503Z,366
2023-01-31T02:11:17.322Z,366
2023-01-31T02:14:17.894Z,362
2023-01-31T02:15:17.195Z,360
2023-01-31T02:18:17.628Z,365
2023-01-31T02:19:17.387Z,366
2023-01-31T02:20:17.621Z,364
2023-01-31T02:21:17.500Z,361
2023-01-31T02:22:18.147Z,367
2023-01-31T02:23:17.579Z,360
2023-01-31T02:26:17.477Z,360
2023-01-31T02:27:17.186Z,346
2023-01-31T02:28:16.950Z,351
2023-01-31T02:29:17.891Z,355
2023-01-31T02:30:17.817Z,357
2023-01-31T02:31:17.909Z,369
2023-01-31T02:32:17.799Z,368
2023-01-31T02:33:17.683Z,363
2023-01-31T02:34:17.272Z,377
2023-01-31T02:35:17.549Z,370
2023-01-31T02:36:17.497Z,365
2023-01-31T02:37:17.424Z,365
2023-01-31T02:38:18.224Z,366
2023-01-31T02:39:18.016Z,365
2023-01-31T02:41:17.373Z,372
2023-01-31T02:42:18.074Z,357
2023-01-31T02:43:17.727Z,361
2023-01-31T02:45:18.313Z,358
2023-01-31T02:46:17.446Z,363
2023-01-31T02:47:17.331Z,366
2023-01-31T02:49:17.727Z,360
2023-01-31T02:50:17.748Z,349
2023-01-31T02:51:17.456Z,349
2023-01-31T02:53:17.507Z,351
2023-01-31T02:54:17.691Z,355
2023-01-31T02:56:18.427Z,342
2023-01-31T02:57:17.551Z,343
2023-01-31T02:58:18.171Z,353
2023-01-31T03:00:19.681Z,361
2023-01-31T03:01:18.074Z,361
2023-01-31T03:02:18.420Z,363
2023-01-31T03:04:17.817Z,365
2023-01-31T03:05:19.075Z,361
2023-01-31T03:06:17.390Z,361
2023-01-31T03:08:17.599Z,367
2023-01-31T03:09:17.432Z,363
2023-01-31T03:11:17.856Z,359
2023-01-31T03:12:18.193Z,365
2023-01-31T03:14:17.938Z,366
2023-01-31T03:15:17.988Z,370
2023-01-31T03:16:17.843Z,355
2023-01-31T03:17:17.706Z,351
2023-01-31T03:19:17.839Z,369
2023-01-31T03:20:18.457Z,368
2023-01-31T03:21:17.315Z,365
2023-01-31T03:23:17.860Z,362
2023-01-31T03:24:18.321Z,357
2023-01-31T03:26:18.223Z,356
2023-01-31T03:27:17.680Z,367
2023-01-31T03:28:17.681Z,368
2023-01-31T03:29:17.950Z,353
2023-01-31T03:31:18.743Z,374
2023-01-31T03:32:17.609Z,367
2023-01-31T03:35:18.798Z,361
2023-01-31T03:36:18.078Z,367
2023-01-31T03:38:18.096Z,370
2023-01-31T03:39:18.628Z,374
2023-01-31T03:40:17.727Z,363
2023-01-31T03:41:17.534Z,362
2023-01-31T03:42:17.624Z,374
2023-01-31T03:43:18.088Z,368
2023-01-31T03:44:18.238Z,358
2023-01-31T03:45:19.152Z,366
2023-01-31T03:47:18.177Z,364
2023-01-31T03:48:17.974Z,373
2023-01-31T03:50:17.737Z,364
2023-01-31T03:51:17.594Z,359
2023-01-31T03:52:17.456Z,357
2023-01-31T03:53:17.303Z,361
2023-01-31T03:54:17.986Z,360
2023-01-31T03:55:25.701Z,361
2023-01-31T03:56:17.460Z,361
2023-01-31T03:57:32.462Z,357
2023-01-31T03:58:17.850Z,346
2023-01-31T03:59:17.575Z,346
2023-01-31T04:00:19.584Z,364
2023-01-31T04:01:17.469Z,364
2023-01-31T04:02:17.289Z,359
2023-01-31T04:03:18.053Z,358
2023-01-31T04:05:18.623Z,364
2023-01-31T04:06:17.653Z,366
2023-01-31T04:07:17.525Z,362
2023-01-31T04:08:17.307Z,367
2023-01-31T04:09:17.024Z,361
2023-01-31T04:10:17.674Z,368
2023-01-31T04:12:17.613Z,352
2023-01-31T04:13:17.344Z,351
2023-01-31T04:15:18.154Z,355
2023-01-31T04:16:17.305Z,361
2023-01-31T04:17:17.169Z,370
2023-01-31T04:19:17.466Z,358
2023-01-31T04:20:17.197Z,363
2023-01-31T04:21:17.948Z,372
2023-01-31T04:23:17.106Z,365
2023-01-31T04:25:17.849Z,367
2023-01-31T04:27:17.675Z,364
2023-01-31T04:28:17.187Z,363
2023-01-31T04:30:17.787Z,375
2023-01-31T04:31:17.908Z,378
2023-01-31T04:32:17.910Z,361
2023-01-31T04:33:17.582Z,361
2023-01-31T04:34:17.192Z,357
2023-01-31T04:35:18.623Z,346
2023-01-31T04:37:17.639Z,350
2023-01-31T04:38:17.096Z,355
2023-01-31T04:39:18.229Z,367
2023-01-31T04:41:17.903Z,370
2023-01-31T04:42:17.891Z,367
2023-01-31T04:43:17.745Z,377
2023-01-31T04:45:18.412Z,372
2023-01-31T04:46:17.144Z,377
2023-01-31T04:47:18.409Z,362
2023-01-31T04:49:17.434Z,370
2023-01-31T04:50:17.534Z,371
2023-01-31T04:51:17.439Z,364
2023-01-31T04:52:17.134Z,364
2023-01-31T04:53:18.095Z,355
2023-01-31T04:54:17.482Z,365
2023-01-31T04:55:17.848Z,368
2023-01-31T04:57:18.313Z,377
2023-01-31T04:58:17.311Z,377
2023-01-31T04:59:17.368Z,370
2023-01-31T05:00:18.017Z,377
2023-01-31T05:01:18.186Z,375
2023-01-31T05:02:15.523Z,370
2023-01-31T05:03:18.098Z,367
2023-01-31T05:04:18.076Z,370
2023-01-31T05:05:18.590Z,375
2023-01-31T05:06:17.698Z,375
2023-01-31T05:08:17.795Z,373
2023-01-31T05:09:17.687Z,365
2023-01-31T05:10:17.599Z,367
2023-01-31T05:12:17.100Z,373
2023-01-31T05:13:17.898Z,366
2023-01-31T05:15:18.647Z,367
2023-01-31T05:16:17.941Z,372
2023-01-31T05:17:17.952Z,372
2023-01-31T05:19:17.768Z,373
2023-01-31T05:20:18.323Z,378
2023-01-31T05:21:18.206Z,379
2023-01-31T05:23:17.467Z,382
2023-01-31T05:24:17.477Z,383
2023-01-31T05:27:17.944Z,378
2023-01-31T05:28:17.946Z,376
2023-01-31T05:30:17.424Z,374
2023-01-31T05:31:17.833Z,376
2023-01-31T05:33:17.770Z,375
2023-01-31T05:34:17.552Z,370
2023-01-31T05:35:17.967Z,374
2023-01-31T05:37:18.000Z,379
2023-01-31T05:38:18.049Z,371
2023-01-31T05:39:18.106Z,365
2023-01-31T05:41:18.034Z,369
2023-01-31T05:42:17.933Z,366
2023-01-31T05:44:18.116Z,370
2023-01-31T05:45:17.783Z,369
2023-01-31T05:46:17.918Z,369
2023-01-31T05:48:17.915Z,360
2023-01-31T05:49:17.849Z,365
2023-01-31T05:51:17.931Z,370
2023-01-31T05:53:17.448Z,369
2023-01-31T05:54:17.406Z,372
2023-01-31T05:55:18.053Z,364
2023-01-31T05:56:17.990Z,362
2023-01-31T05:57:18.479Z,364
2023-01-31T05:59:17.050Z,370
2023-01-31T06:00:18.318Z,374
2023-01-31T06:02:18.001Z,371
2023-01-31T06:03:17.999Z,363
2023-01-31T06:06:17.715Z,368
2023-01-31T06:08:18.208Z,378
2023-01-31T06:09:17.711Z,378
2023-01-31T06:10:20.192Z,377
2023-01-31T06:11:17.382Z,367
2023-01-31T06:12:17.252Z,370
2023-01-31T06:13:17.601Z,367
2023-01-31T06:14:17.413Z,372
2023-01-31T06:15:18.279Z,367
2023-01-31T06:17:17.652Z,364
2023-01-31T06:18:17.971Z,367
2023-01-31T06:19:17.767Z,376
2023-01-31T06:21:17.841Z,371
2023-01-31T06:22:25.698Z,361
2023-01-31T06:24:17.347Z,366
2023-01-31T06:25:17.699Z,369
2023-01-31T06:26:17.756Z,376
2023-01-31T06:28:32.179Z,373
2023-01-31T06:29:18.212Z,368
2023-01-31T06:31:17.815Z,370
2023-01-31T06:32:18.040Z,375
2023-01-31T06:33:17.374Z,376
2023-01-31T06:35:18.629Z,364
2023-01-31T06:36:19.514Z,369
2023-01-31T06:38:36.962Z,371
2023-01-31T06:39:17.998Z,366
2023-01-31T06:40:18.035Z,368
2023-01-31T06:42:36.561Z,365
2023-01-31T06:43:17.572Z,364
2023-01-31T06:44:17.897Z,355
2023-01-31T06:46:18.120Z,367
2023-01-31T06:47:18.441Z,373
2023-01-31T06:48:17.604Z,373
2023-01-31T06:49:17.653Z,371
2023-01-31T06:50:18.400Z,382
2023-01-31T06:51:17.676Z,382
2023-01-31T06:52:17.613Z,374
2023-01-31T06:53:18.095Z,371
2023-01-31T06:54:17.813Z,365
2023-01-31T06:55:18.199Z,368
2023-01-31T06:57:18.198Z,369
2023-01-31T06:58:19.676Z,375
2023-01-31T07:00:18.513Z,359
2023-01-31T07:01:17.394Z,364
2023-01-31T07:02:17.961Z,364
2023-01-31T07:04:18.602Z,367
2023-01-31T07:05:18.181Z,373
2023-01-31T07:06:18.004Z,361
2023-01-31T07:08:17.614Z,365
2023-01-31T07:11:21.930Z,357
2023-01-31T07:12:18.145Z,351
2023-01-31T07:13:18.127Z,358
2023-01-31T07:15:18.310Z,353
2023-01-31T07:16:17.333Z,355
2023-01-31T07:17:17.484Z,352
2023-01-31T07:18:20.261Z,357
2023-01-31T07:19:17.428Z,357
2023-01-31T07:20:17.925Z,357
2023-01-31T07:21:17.557Z,357
2023-01-31T07:22:17.554Z,363
2023-01-31T07:23:17.316Z,360
2023-01-31T07:24:17.060Z,364
2023-01-31T07:25:17.889Z,363
2023-01-31T07:26:17.525Z,365
2023-01-31T07:27:18.137Z,375
2023-01-31T07:28:17.814Z,367
2023-01-31T07:30:18.777Z,371
2023-01-31T07:31:17.721Z,371
2023-01-31T07:33:17.676Z,378
2023-01-31T07:34:17.732Z,368
2023-01-31T07:35:18.350Z,381
2023-01-31T07:37:17.497Z,388
2023-01-31T07:39:18.371Z,373
2023-01-31T07:40:18.542Z,368
2023-01-31T07:41:18.507Z,361
2023-01-31T07:42:17.115Z,361
2023-01-31T07:43:17.335Z,365
2023-01-31T07:45:23.679Z,354
2023-01-31T07:46:18.432Z,361
2023-01-31T07:47:17.641Z,361
2023-01-31T07:48:18.625Z,364
2023-01-31T07:49:18.928Z,363
2023-01-31T07:50:18.618Z,360
2023-01-31T07:52:18.296Z,358
2023-01-31T07:53:18.316Z,363
2023-01-31T07:54:17.654Z,363
2023-01-31T07:56:17.727Z,360
2023-01-31T07:57:17.488Z,363
2023-01-31T07:58:17.664Z,371
2023-01-31T07:59:17.666Z,372
2023-01-31T08:01:17.874Z,370
2023-01-31T08:02:17.918Z,370
2023-01-31T08:04:22.173Z,366
2023-01-31T08:05:18.619Z,362
2023-01-31T08:07:18.308Z,358
2023-01-31T08:09:17.988Z,368
2023-01-31T08:11:18.013Z,371
2023-01-31T08:12:17.562Z,364
2023-01-31T08:13:17.743Z,359
2023-01-31T08:15:18.691Z,366
2023-01-31T08:17:17.813Z,364
2023-01-31T08:19:18.303Z,374
2023-01-31T08:20:18.485Z,367
2023-01-31T08:21:18.017Z,368
2023-01-31T08:23:17.540Z,363
2023-01-31T08:24:17.869Z,368
2023-01-31T08:26:17.745Z,365
2023-01-31T08:27:17.982Z,366
2023-01-31T08:28:18.146Z,359
2023-01-31T08:29:22.750Z,361
2023-01-31T08:31:23.532Z,358
2023-01-31T08:32:18.177Z,363
2023-01-31T08:33:17.638Z,364
2023-01-31T08:35:23.115Z,357
2023-01-31T08:37:22.669Z,372
2023-01-31T08:39:23.046Z,356
2023-01-31T08:40:18.643Z,362
2023-01-31T08:43:18.162Z,363
2023-01-31T08:44:17.418Z,364
2023-01-31T08:45:18.647Z,362
2023-01-31T08:47:25.950Z,352
2023-01-31T08:48:18.178Z,363
2023-01-31T08:49:18.004Z,365
2023-01-31T08:51:18.399Z,355
2023-01-31T08:52:17.786Z,355
2023-01-31T08:53:18.434Z,361
2023-01-31T08:55:18.719Z,351
2023-01-31T08:56:17.778Z,366
2023-01-31T08:57:17.743Z,363
2023-01-31T09:00:19.609Z,359
2023-01-31T09:01:32.415Z,360
2023-01-31T09:02:17.658Z,351
2023-01-31T09:04:17.995Z,354
2023-01-31T09:05:18.403Z,350
2023-01-31T09:06:18.015Z,348
2023-01-31T09:08:18.344Z,355
2023-01-31T09:09:17.900Z,351
2023-01-31T09:11:18.021Z,348
2023-01-31T09:12:17.847Z,346
2023-01-31T09:13:18.731Z,341
2023-01-31T09:14:17.999Z,350
2023-01-31T09:16:17.515Z,367
2023-01-31T09:17:18.543Z,359
2023-01-31T09:18:18.284Z,361
2023-01-31T09:21:17.774Z,360
2023-01-31T09:22:18.401Z,358
2023-01-31T09:24:18.434Z,352
2023-01-31T09:25:17.556Z,352
2023-01-31T09:26:18.404Z,356
2023-01-31T09:27:19.320Z,358
2023-01-31T09:28:17.885Z,358
2023-01-31T09:29:17.382Z,353
2023-01-31T09:30:18.868Z,359
2023-01-31T09:31:17.849Z,359
2023-01-31T09:32:17.698Z,358
2023-01-31T09:33:18.615Z,354
2023-01-31T09:34:19.190Z,358
2023-01-31T09:36:18.135Z,366
2023-01-31T09:38:17.908Z,375
2023-01-31T09:40:18.631Z,364
2023-01-31T09:41:18.207Z,360
2023-01-31T09:42:18.481Z,352
2023-01-31T09:43:18.113Z,362
2023-01-31T09:45:19.200Z,360
2023-01-31T09:46:18.124Z,357
2023-01-31T09:47:17.869Z,360
2023-01-31T09:49:18.119Z,370
2023-01-31T09:50:18.204Z,349
2023-01-31T09:51:17.695Z,349
2023-01-31T09:52:18.056Z,347
2023-01-31T09:54:17.784Z,350
2023-01-31T09:55:18.498Z,351
2023-01-31T09:56:17.845Z,347
2023-01-31T09:58:17.921Z,342
2023-01-31T09:59:17.413Z,350
2023-01-31T10:00:18.144Z,354
2023-01-31T10:03:18.119Z,349
2023-01-31T10:04:17.678Z,359
2023-01-31T10:05:18.954Z,357
2023-01-31T10:07:17.599Z,356
2023-01-31T10:08:17.933Z,350
2023-01-31T10:12:17.700Z,365
2023-01-31T10:13:18.126Z,345
2023-01-31T10:15:18.653Z,349
2023-01-31T10:17:18.242Z,341
2023-01-31T10:18:17.863Z,341
2023-01-31T10:21:18.433Z,357
2023-01-31T10:22:18.162Z,352
2023-01-31T10:24:18.157Z,345
2023-01-31T10:25:18.306Z,358
2023-01-31T10:26:18.196Z,361
2023-01-31T10:28:18.583Z,361
2023-01-31T10:29:18.322Z,367
2023-01-31T10:30:19.813Z,357
2023-01-31T10:32:18.553Z,355
2023-01-31T10:33:17.699Z,350
2023-01-31T10:34:18.000Z,354
2023-01-31T10:35:18.216Z,339
2023-01-31T10:37:18.269Z,341
2023-01-31T10:38:18.329Z,360
2023-01-31T10:39:18.110Z,357
2023-01-31T10:41:17.983Z,349
2023-01-31T10:43:18.604Z,352
2023-01-31T10:45:19.369Z,353
2023-01-31T10:46:18.503Z,347
2023-01-31T10:47:18.572Z,346
2023-01-31T10:49:18.954Z,352
2023-01-31T10:50:19.579Z,346
2023-01-31T10:51:19.326Z,343
2023-01-31T10:52:18.755Z,353
2023-01-31T10:54:18.263Z,344
2023-01-31T10:55:18.577Z,357
2023-01-31T10:56:22.757Z,357
2023-01-31T10:58:18.422Z,350
2023-01-31T10:59:18.118Z,355
2023-01-31T11:00:19.672Z,366
2023-01-31T11:01:17.957Z,366
2023-01-31T11:02:24.069Z,361
2023-01-31T11:03:18.481Z,348
2023-01-31T11:04:18.170Z,342
2023-01-31T11:06:18.433Z,344
2023-01-31T11:07:18.476Z,339
2023-01-31T11:08:26.317Z,351
2023-01-31T11:09:18.306Z,352
2023-01-31T11:11:18.407Z,348
2023-01-31T11:12:17.686Z,342
2023-01-31T11:14:17.807Z,347
2023-01-31T11:15:18.349Z,343
2023-01-31T11:16:18.592Z,346
2023-01-31T11:18:32.202Z,354
2023-01-31T11:20:19.064Z,347
2023-01-31T11:21:18.352Z,351
2023-01-31T11:22:32.619Z,340
2023-01-31T11:24:32.489Z,349
2023-01-31T11:25:18.191Z,359
2023-01-31T11:26:17.604Z,357
2023-01-31T11:27:17.313Z,362
2023-01-31T11:28:17.894Z,346
2023-01-31T11:29:18.455Z,352
2023-01-31T11:30:18.766Z,358
2023-01-31T11:31:18.540Z,359
2023-01-31T11:33:18.439Z,355
2023-01-31T11:34:17.953Z,347
2023-01-31T11:35:18.812Z,346
2023-01-31T11:36:17.499Z,346
2023-01-31T11:37:18.284Z,343
2023-01-31T11:39:18.094Z,351
2023-01-31T11:40:39.946Z,349
2023-01-31T11:42:18.789Z,364
2023-01-31T11:43:18.146Z,349
2023-01-31T11:44:18.356Z,344
2023-01-31T11:45:21.078Z,350
2023-01-31T11:47:18.531Z,354
2023-01-31T11:48:18.555Z,351
2023-01-31T11:49:18.270Z,355
2023-01-31T11:52:20.450Z,361
2023-01-31T11:53:18.439Z,363
2023-01-31T11:55:18.245Z,359
2023-01-31T11:57:18.266Z,365
2023-01-31T11:58:17.703Z,366
2023-01-31T11:59:18.667Z,343
2023-01-31T12:00:19.966Z,341
2023-01-31T12:01:18.601Z,341
2023-01-31T12:02:18.382Z,350
2023-01-31T12:03:18.605Z,358
2023-01-31T12:04:17.784Z,358
2023-01-31T12:05:19.045Z,354
2023-01-31T12:06:18.212Z,354
2023-01-31T12:08:18.133Z,355
2023-01-31T12:09:18.314Z,354
2023-01-31T12:11:18.204Z,359
2023-01-31T12:12:17.692Z,360
2023-01-31T12:13:19.358Z,359
2023-01-31T12:14:18.102Z,372
2023-01-31T12:16:18.340Z,368
2023-01-31T12:17:17.475Z,354
2023-01-31T12:20:27.592Z,365
2023-01-31T12:21:17.487Z,370
2023-01-31T12:22:18.021Z,361
2023-01-31T12:23:18.127Z,360
2023-01-31T12:25:17.948Z,351
2023-01-31T12:26:17.190Z,353
2023-01-31T12:27:17.337Z,344
2023-01-31T12:28:17.353Z,351
2023-01-31T12:29:17.475Z,353
2023-01-31T12:30:18.549Z,351
2023-01-31T12:32:17.708Z,355
2023-01-31T12:33:18.466Z,361
2023-01-31T12:35:18.682Z,342
2023-01-31T12:36:18.318Z,341
2023-01-31T12:37:18.192Z,344
2023-01-31T12:38:18.339Z,354
2023-01-31T12:40:25.156Z,350
2023-01-31T12:41:18.269Z,351
2023-01-31T12:43:17.799Z,362
2023-01-31T12:45:17.762Z,353
2023-01-31T12:46:18.742Z,350
2023-01-31T12:49:18.559Z,355
2023-01-31T12:51:18.620Z,350
2023-01-31T12:52:17.877Z,355
2023-01-31T12:54:18.045Z,362
2023-01-31T12:55:18.796Z,364
2023-01-31T12:56:18.060Z,357
2023-01-31T12:57:18.062Z,345
2023-01-31T13:01:17.973Z,354
2023-01-31T13:03:18.853Z,357
2023-01-31T13:04:18.513Z,362
2023-01-31T13:05:19.397Z,360
2023-01-31T13:08:18.289Z,359
2023-01-31T13:10:18.867Z,355
2023-01-31T13:11:18.844Z,357
2023-01-31T13:13:18.537Z,355
2023-01-31T13:14:17.646Z,358
2023-01-31T13:15:19.810Z,352
2023-01-31T13:16:18.066Z,352
2023-01-31T13:17:17.966Z,358
2023-01-31T13:18:17.934Z,352
2023-01-31T13:19:18.427Z,353
2023-01-31T13:20:17.817Z,353
2023-01-31T13:21:18.426Z,356
2023-01-31T13:23:23.029Z,354
2023-01-31T13:25:23.925Z,359
2023-01-31T13:27:22.852Z,360
2023-01-31T13:28:18.559Z,352
2023-01-31T13:29:19.042Z,352
2023-01-31T13:30:18.435Z,354
2023-01-31T13:33:18.173Z,356
2023-01-31T13:34:17.368Z,352
2023-01-31T13:35:18.024Z,359
2023-01-31T13:36:17.519Z,358
2023-01-31T13:38:17.978Z,359
2023-01-31T13:39:17.760Z,366
2023-01-31T13:40:18.000Z,359
2023-01-31T13:41:17.522Z,359
2023-01-31T13:42:18.282Z,356
2023-01-31T13:43:18.202Z,354
2023-01-31T13:44:17.550Z,357
2023-01-31T13:45:18.931Z,348
2023-01-31T13:47:18.009Z,342
2023-01-31T13:48:18.266Z,345
2023-01-31T13:49:18.009Z,339
2023-01-31T13:50:18.155Z,338
2023-01-31T13:51:17.808Z,338
2023-01-31T13:53:17.723Z,345
2023-01-31T13:54:19.052Z,351
2023-01-31T13:55:18.426Z,360
2023-01-31T13:58:18.882Z,360
2023-01-31T14:00:19.187Z,349
2023-01-31T14:02:18.399Z,348
2023-01-31T14:03:18.277Z,353
2023-01-31T14:04:18.135Z,355
2023-01-31T14:06:18.391Z,347
2023-01-31T14:07:18.232Z,349
2023-01-31T14:08:18.123Z,350
2023-01-31T14:10:18.035Z,354
2023-01-31T14:12:18.197Z,348
2023-01-31T14:13:17.602Z,345
2023-01-31T14:14:17.938Z,336
2023-01-31T14:16:18.221Z,353
2023-01-31T14:17:17.906Z,357
2023-01-31T14:19:17.925Z,347
2023-01-31T14:21:18.121Z,351
2023-01-31T14:22:18.075Z,349
2023-01-31T14:23:17.790Z,352
2023-01-31T14:25:17.918Z,347
2023-01-31T14:26:18.492Z,354
2023-01-31T14:27:18.481Z,346
2023-01-31T14:28:17.343Z,346
2023-01-31T14:29:18.244Z,348
2023-01-31T14:30:18.836Z,352
2023-01-31T14:31:18.464Z,352
2023-01-31T14:32:18.434Z,346
2023-01-31T14:33:18.595Z,341
2023-01-31T14:35:19.596Z,345
2023-01-31T14:36:18.506Z,347
2023-01-31T14:38:18.015Z,354
2023-01-31T14:40:18.486Z,352
2023-01-31T14:41:18.595Z,348
2023-01-31T14:42:18.877Z,351
2023-01-31T14:44:18.254Z,348
2023-01-31T14:46:18.608Z,353
2023-01-31T14:48:18.577Z,342
2023-01-31T14:49:18.659Z,357
2023-01-31T14:51:18.017Z,354
2023-01-31T14:53:18.224Z,355
2023-01-31T14:54:18.361Z,357
2023-01-31T14:55:19.196Z,347
2023-01-31T14:56:17.918Z,347
2023-01-31T14:57:17.824Z,353
2023-01-31T14:58:18.456Z,359
2023-01-31T14:59:18.176Z,366
2023-01-31T15:00:19.591Z,348
2023-01-31T15:01:17.788Z,348
2023-01-31T15:02:18.221Z,347
2023-01-31T15:03:18.629Z,353
2023-01-31T15:04:17.655Z,352
2023-01-31T15:05:18.641Z,352
2023-01-31T15:06:17.621Z,352
2023-01-31T15:07:18.617Z,351
2023-01-31T15:08:18.071Z,358
2023-01-31T15:10:20.402Z,354
2023-01-31T15:12:18.232Z,360
2023-01-31T15:13:18.396Z,361
2023-01-31T15:15:19.624Z,350
2023-01-31T15:16:17.847Z,350
2023-01-31T15:17:34.067Z,356
2023-01-31T15:20:19.089Z,359
2023-01-31T15:21:17.666Z,359
2023-01-31T15:22:17.671Z,360
2023-01-31T15:23:20.082Z,351
2023-01-31T15:24:17.628Z,351
2023-01-31T15:25:18.628Z,352
2023-01-31T15:26:19.147Z,363
2023-01-31T15:27:17.670Z,363
2023-01-31T15:28:17.572Z,361
2023-01-31T15:30:18.283Z,361
2023-01-31T15:31:17.488Z,365
2023-01-31T15:32:18.038Z,351
2023-01-31T15:33:18.579Z,348
2023-01-31T15:35:17.974Z,349
2023-01-31T15:36:18.582Z,360
2023-01-31T15:37:18.653Z,353
2023-01-31T15:38:18.173Z,353
2023-01-31T15:39:17.922Z,359
2023-01-31T15:40:18.109Z,360
2023-01-31T15:42:17.791Z,351
2023-01-31T15:43:18.399Z,354
2023-01-31T15:44:17.576Z,356
2023-01-31T15:47:18.205Z,353
2023-01-31T15:48:17.829Z,351
2023-01-31T15:49:32.581Z,354
2023-01-31T15:50:23.028Z,356
2023-01-31T15:52:18.389Z,350
2023-01-31T15:53:17.800Z,344
2023-01-31T15:54:17.627Z,340
2023-01-31T15:55:17.909Z,335
2023-01-31T15:56:17.739Z,344
2023-01-31T15:58:18.226Z,355
2023-01-31T15:59:17.989Z,356
2023-01-31T16:01:18.115Z,368
2023-01-31T16:02:18.049Z,373
2023-01-31T16:03:18.416Z,352
2023-01-31T16:05:19.487Z,349
2023-01-31T16:06:32.864Z,357
2023-01-31T16:07:18.460Z,354
2023-01-31T16:09:18.440Z,355
2023-01-31T16:10:18.591Z,351
2023-01-31T16:11:18.248Z,347
2023-01-31T16:12:32.562Z,348
2023-01-31T16:14:18.627Z,361
2023-01-31T16:15:19.565Z,367
2023-01-31T16:16:18.755Z,357
2023-01-31T16:18:18.563Z,359
2023-01-31T16:20:18.447Z,346
2023-01-31T16:21:18.367Z,355
2023-01-31T16:23:18.299Z,352
2023-01-31T16:24:37.144Z,358
2023-01-31T16:25:18.931Z,353
2023-01-31T16:27:18.315Z,351
2023-01-31T16:28:18.405Z,355
2023-01-31T16:30:19.380Z,346
2023-01-31T16:32:17.670Z,349
2023-01-31T16:33:18.650Z,359
2023-01-31T16:34:19.216Z,350
2023-01-31T16:36:18.625Z,346
2023-01-31T16:37:18.860Z,356
2023-01-31T16:38:19.020Z,349
2023-01-31T16:40:19.213Z,347
2023-01-31T16:41:19.641Z,352
2023-01-31T16:42:18.212Z,351
2023-01-31T16:43:18.642Z,347
2023-01-31T16:44:18.727Z,359
2023-01-31T16:45:19.604Z,351
2023-01-31T16:46:18.082Z,351
2023-01-31T16:47:17.684Z,340
2023-01-31T16:49:18.093Z,356
2023-01-31T16:50:18.075Z,362
2023-01-31T16:53:17.693Z,353
2023-01-31T16:54:18.118Z,358
2023-01-31T16:55:18.461Z,359
2023-01-31T16:57:17.815Z,363
2023-01-31T16:59:18.299Z,345
2023-01-31T17:01:18.609Z,355
2023-01-31T17:04:18.503Z,355
2023-01-31T17:06:18.715Z,356
2023-01-31T17:07:18.857Z,361
2023-01-31T17:08:18.508Z,361
2023-01-31T17:09:19.100Z,352
2023-01-31T17:11:28.953Z,358
2023-01-31T17:13:18.719Z,355
2023-01-31T17:15:19.297Z,350
2023-01-31T17:16:18.773Z,358
2023-01-31T17:17:22.024Z,351
2023-01-31T17:18:18.211Z,355
2023-01-31T17:19:18.534Z,360
2023-01-31T17:21:18.502Z,360
2023-01-31T17:24:18.161Z,347
2023-01-31T17:25:18.877Z,349
2023-01-31T17:28:18.403Z,349
2023-01-31T17:30:18.490Z,364
2023-01-31T17:31:18.089Z,360
2023-01-31T17:33:17.885Z,363
2023-01-31T17:34:18.500Z,358
2023-01-31T17:36:18.725Z,356
2023-01-31T17:37:30.070Z,352
2023-01-31T17:38:17.683Z,354
2023-01-31T17:41:18.121Z,359
2023-01-31T17:42:18.059Z,353
2023-01-31T17:43:17.540Z,349
2023-01-31T17:46:17.602Z,354
2023-01-31T17:47:18.079Z,360
2023-01-31T17:48:26.301Z,360
2023-01-31T17:49:18.454Z,353
2023-01-31T17:50:18.142Z,352
2023-01-31T17:51:18.307Z,355
2023-01-31T17:53:18.632Z,346
2023-01-31T17:54:18.102Z,359
2023-01-31T17:55:17.977Z,346
2023-01-31T17:57:18.077Z,357
2023-01-31T17:59:26.505Z,354
2023-01-31T18:00:19.492Z,352
2023-01-31T18:01:17.791Z,352
2023-01-31T18:02:18.412Z,345
2023-01-31T18:03:18.234Z,345
2023-01-31T18:04:17.890Z,345
2023-01-31T18:06:18.177Z,343
2023-01-31T18:07:17.902Z,348
2023-01-31T18:08:17.819Z,359
2023-01-31T18:09:18.596Z,354
2023-01-31T18:10:18.348Z,358
2023-01-31T18:12:17.915Z,362
2023-01-31T18:13:22.918Z,344
2023-01-31T18:14:17.964Z,358
2023-01-31T18:16:18.164Z,360
2023-01-31T18:17:22.860Z,365
2023-01-31T18:18:18.040Z,352
2023-01-31T18:20:18.513Z,362
2023-01-31T18:21:23.393Z,354
2023-01-31T18:22:18.213Z,352
2023-01-31T18:25:26.060Z,354
2023-01-31T18:26:19.020Z,345
2023-01-31T18:29:31.983Z,352
2023-01-31T18:30:18.279Z,356
2023-01-31T18:33:31.794Z,349
2023-01-31T18:34:18.384Z,350
2023-01-31T18:35:19.070Z,365